Time;durP1;ratioP1;P1;durP2;ratioP2;P2;SDS_P1;SDS_P2;PMS_P1;PMS_P2;Temp;Humidity;BMP_temperature;BMP_pressure;BME280_temperature;BME280_humidity;BME280_pressure;Samples;Min_cycle;Max_cycle;Signal;HPM_P1;HPM_P2
2021/08/17 00:02:20;;;;;;;1.10;1.00;;;;;;;18.95;82.17;95984.42;127574;1093;26711;-84
2021/08/17 00:16:48;;;;;;;1.93;1.03;;;;;;;19.65;81.57;95937.25;127709;1093;23465;-83
2021/08/17 00:19:20;;;;;;;1.75;1.05;;;;;;;19.72;80.79;95940.11;127525;1096;28521;-83
2021/08/17 00:21:51;;;;;;;2.00;0.95;;;;;;;19.80;80.55;95917.58;127541;1096;27550;-84
2021/08/17 00:24:22;;;;;;;2.10;0.75;;;;;;;19.78;80.09;95933.30;127574;1096;25388;-84
2021/08/17 00:26:53;;;;;;;2.83;1.18;;;;;;;19.70;79.27;95950.41;127572;1096;24541;-84
2021/08/17 00:29:25;;;;;;;2.03;1.03;;;;;;;19.55;79.24;95968.93;127572;1096;23946;-83
2021/08/17 00:31:56;;;;;;;1.40;1.10;;;;;;;19.53;80.24;95987.30;127589;1096;24946;-83
2021/08/17 00:34:27;;;;;;;1.95;1.30;;;;;;;19.54;79.74;95994.27;127563;1096;25527;-83
2021/08/17 00:36:59;;;;;;;1.23;0.88;;;;;;;19.51;79.73;96008.38;127551;1093;26269;-84
2021/08/17 00:39:30;;;;;;;2.33;0.90;;;;;;;19.52;80.08;96007.25;127548;1096;24894;-83
2021/08/17 00:42:03;;;;;;;2.23;1.10;;;;;;;19.52;80.06;96009.94;127530;1095;26747;-83
2021/08/17 00:44:35;;;;;;;1.00;0.70;;;;;;;19.58;79.74;95998.96;127576;1096;28983;-84
2021/08/17 00:47:07;;;;;;;2.08;1.00;;;;;;;19.59;80.02;96005.90;127515;1096;25214;-83
2021/08/17 00:49:38;;;;;;;2.15;0.68;;;;;;;19.49;79.88;96010.64;127609;1095;25174;-83
2021/08/17 00:52:10;;;;;;;1.28;0.68;;;;;;;19.32;80.18;96021.00;127607;1096;26860;-83
2021/08/17 00:54:42;;;;;;;0.85;0.65;;;;;;;19.21;80.39;96020.73;127570;1093;42346;-83
2021/08/17 00:57:14;;;;;;;0.75;0.60;;;;;;;19.13;80.79;96021.68;127506;1093;26557;-83
2021/08/17 00:59:46;;;;;;;1.53;0.90;;;;;;;19.05;80.91;96030.71;127627;1094;25773;-83
2021/08/17 01:02:17;;;;;;;1.38;1.00;;;;;;;19.01;81.25;96037.91;127656;1096;25177;-83
2021/08/17 01:04:48;;;;;;;1.53;0.83;;;;;;;18.91;81.26;96048.03;127632;1096;31613;-83
2021/08/17 01:07:20;;;;;;;2.00;0.93;;;;;;;18.85;81.96;96053.98;127712;1095;30170;-83
2021/08/17 01:09:51;;;;;;;1.98;0.88;;;;;;;18.76;82.56;96059.53;127578;1096;24408;-84
2021/08/17 01:12:22;;;;;;;1.85;1.00;;;;;;;18.72;82.51;96071.28;127618;1093;25620;-84
2021/08/17 01:14:54;;;;;;;2.38;1.38;;;;;;;18.63;82.04;96053.44;127657;1096;27707;-83
2021/08/17 01:17:26;;;;;;;2.65;1.88;;;;;;;18.58;81.87;96055.55;127600;1093;27926;-83
2021/08/17 01:19:57;;;;;;;2.73;1.60;;;;;;;18.53;81.89;96047.75;127564;1097;29499;-84
2021/08/17 01:22:28;;;;;;;3.33;1.85;;;;;;;18.58;81.71;96058.23;127598;1093;24946;-83
2021/08/17 01:25:00;;;;;;;2.23;1.20;;;;;;;18.57;81.87;96075.47;127552;1093;24451;-83
2021/08/17 01:27:31;;;;;;;2.88;1.15;;;;;;;18.35;81.74;96093.67;127603;1093;25782;-83
2021/08/17 01:30:02;;;;;;;1.10;0.63;;;;;;;18.15;82.01;96097.29;127596;1092;44421;-84
2021/08/17 01:32:33;;;;;;;0.83;0.70;;;;;;;18.02;81.76;96090.42;127620;1093;23307;-83
2021/08/17 01:35:05;;;;;;;1.80;0.70;;;;;;;17.82;82.23;96105.52;127579;1093;25148;-83
2021/08/17 01:37:37;;;;;;;0.90;0.70;;;;;;;17.70;81.97;96102.83;127564;1092;24685;-83
2021/08/17 01:40:12;;;;;;;1.95;1.30;;;;;;;17.71;81.42;96115.90;127564;1093;24146;-83
2021/08/17 01:42:45;;;;;;;1.90;1.30;;;;;;;17.63;80.53;96114.09;127541;1093;26292;-82
2021/08/17 01:45:18;;;;;;;3.00;1.60;;;;;;;17.58;80.25;96125.02;127527;1093;25761;-83
2021/08/17 01:47:51;;;;;;;3.77;1.93;;;;;;;17.59;80.33;96120.45;127530;1093;29207;-83
2021/08/17 01:50:23;;;;;;;3.98;1.80;;;;;;;17.60;80.07;96135.44;127555;1093;27862;-83
2021/08/17 01:52:54;;;;;;;3.88;1.80;;;;;;;17.64;79.76;96126.38;127510;1093;30677;-84
2021/08/17 01:55:26;;;;;;;2.85;1.70;;;;;;;17.53;79.63;96111.08;127554;1093;60350;-84
2021/08/17 01:57:57;;;;;;;3.35;1.83;;;;;;;17.46;79.66;96104.38;127582;1093;25392;-83
2021/08/17 02:00:28;;;;;;;5.38;1.95;;;;;;;17.30;79.99;96094.63;127608;1093;27825;-83
2021/08/17 02:02:59;;;;;;;2.83;1.55;;;;;;;17.17;80.34;96100.00;127515;1093;69750;-83
2021/08/17 02:05:31;;;;;;;4.23;1.60;;;;;;;17.10;80.72;96105.11;127555;1092;25295;-84
2021/08/17 02:08:05;;;;;;;2.70;1.95;;;;;;;17.06;81.22;96124.86;127580;1092;27401;-83
2021/08/17 02:10:36;;;;;;;3.73;1.53;;;;;;;17.05;81.58;96125.97;127556;1093;25228;-83
2021/08/17 02:13:09;;;;;;;3.80;2.38;;;;;;;17.02;81.74;96124.72;127548;1092;26503;-83
2021/08/17 02:15:40;;;;;;;5.80;2.00;;;;;;;17.03;81.73;96128.17;127622;1093;32237;-83
2021/08/17 02:18:11;;;;;;;2.88;1.73;;;;;;;17.19;82.10;96129.13;127622;1093;25296;-83
2021/08/17 02:20:44;;;;;;;3.95;1.83;;;;;;;17.39;81.81;96130.16;127596;1092;26295;-83
2021/08/17 02:23:16;;;;;;;2.85;1.93;;;;;;;17.39;80.95;96116.75;127566;1093;25666;-83
2021/08/17 02:25:47;;;;;;;4.50;2.08;;;;;;;17.18;80.70;96119.53;127564;1093;25269;-83
2021/08/17 02:28:19;;;;;;;4.08;2.20;;;;;;;17.00;81.03;96112.77;127559;1093;25321;-83
2021/08/17 02:30:51;;;;;;;5.85;1.93;;;;;;;16.90;81.21;96100.61;127521;1093;37669;-83
2021/08/17 02:33:22;;;;;;;4.58;2.15;;;;;;;16.81;81.81;96106.04;127605;1093;28019;-83
2021/08/17 02:35:53;;;;;;;4.90;2.13;;;;;;;16.76;82.10;96116.19;127598;1092;75095;-83
2021/08/17 02:38:25;;;;;;;3.40;1.80;;;;;;;16.74;82.26;96121.84;127643;1093;27226;-84
2021/08/17 02:40:56;;;;;;;4.55;1.95;;;;;;;16.74;82.39;96127.19;127576;1093;23090;-83
2021/08/17 02:43:27;;;;;;;3.60;1.80;;;;;;;16.81;82.52;96135.48;127539;1093;24032;-83
2021/08/17 02:45:59;;;;;;;4.70;2.00;;;;;;;16.82;82.46;96126.34;127560;1093;27390;-83
2021/08/17 02:48:30;;;;;;;3.58;2.35;;;;;;;16.87;82.58;96136.83;127553;1093;26180;-84
2021/08/17 02:51:01;;;;;;;4.38;2.35;;;;;;;16.94;82.43;96138.99;127572;1093;26636;-84
2021/08/17 02:53:32;;;;;;;6.05;2.33;;;;;;;16.98;82.14;96131.07;127545;1093;39356;-83
2021/08/17 02:56:04;;;;;;;5.10;2.18;;;;;;;17.00;82.33;96132.30;127559;1093;27556;-84
2021/08/17 02:58:36;;;;;;;3.73;2.23;;;;;;;17.04;81.94;96137.80;127576;1093;23472;-84
2021/08/17 03:01:07;;;;;;;3.85;2.03;;;;;;;17.03;81.56;96137.02;127530;1093;41387;-83
2021/08/17 03:03:38;;;;;;;5.30;2.30;;;;;;;17.06;81.61;96133.67;127560;1093;28253;-82
2021/08/17 03:06:10;;;;;;;4.25;2.40;;;;;;;16.99;81.23;96119.25;127585;1093;27427;-83
2021/08/17 03:08:41;;;;;;;6.08;2.65;;;;;;;16.96;81.98;96112.66;127648;1096;26917;-83
2021/08/17 03:11:13;;;;;;;4.75;2.43;;;;;;;16.94;81.59;96114.89;127563;1096;24942;-82
2021/08/17 03:13:44;;;;;;;6.00;2.48;;;;;;;16.95;81.49;96110.31;127542;1096;24580;-83
2021/08/17 03:16:15;;;;;;;4.08;2.00;;;;;;;16.98;81.59;96126.50;127543;1096;38738;-83
2021/08/17 03:18:47;;;;;;;5.70;2.63;;;;;;;17.01;81.42;96141.11;127535;1096;25165;-82
2021/08/17 03:21:18;;;;;;;5.73;2.70;;;;;;;17.08;81.74;96141.38;127545;1096;25800;-82
2021/08/17 03:23:49;;;;;;;4.28;2.13;;;;;;;17.18;81.11;96128.34;127555;1094;25438;-84
2021/08/17 03:26:20;;;;;;;6.00;2.25;;;;;;;17.17;80.75;96112.58;127557;1096;27469;-83
2021/08/17 03:28:52;;;;;;;4.65;2.50;;;;;;;17.19;80.84;96129.13;127562;1093;25762;-84
2021/08/17 03:31:23;;;;;;;5.18;2.25;;;;;;;17.17;80.52;96117.94;127506;1093;26007;-82
2021/08/17 03:33:55;;;;;;;2.95;1.88;;;;;;;17.12;80.62;96105.55;127572;1096;23735;-83
2021/08/17 03:36:26;;;;;;;5.75;2.68;;;;;;;17.18;80.73;96103.46;127549;1096;27767;-83
2021/08/17 03:38:57;;;;;;;5.35;2.10;;;;;;;17.25;80.55;96110.94;127557;1096;25526;-83
2021/08/17 03:41:29;;;;;;;5.23;2.13;;;;;;;17.29;80.59;96114.50;127539;1096;26049;-83
2021/08/17 03:44:00;;;;;;;3.28;2.20;;;;;;;17.35;80.50;96105.93;127579;1095;25150;-85
2021/08/17 03:46:31;;;;;;;3.03;1.93;;;;;;;17.40;80.60;96100.34;127546;1094;24972;-84
2021/08/17 03:49:03;;;;;;;3.20;1.80;;;;;;;17.46;80.58;96092.88;127548;1096;26969;-83
2021/08/17 03:51:34;;;;;;;3.58;2.15;;;;;;;17.54;80.55;96097.34;127546;1097;23630;-83
2021/08/17 03:54:05;;;;;;;4.18;2.40;;;;;;;17.56;80.09;96099.67;127521;1096;29679;-84
2021/08/17 03:56:36;;;;;;;5.30;2.17;;;;;;;17.59;80.06;96118.55;127675;1093;22839;-84
2021/08/17 03:59:08;;;;;;;3.38;1.98;;;;;;;17.51;79.48;96122.13;127555;1094;24982;-83
2021/08/17 04:01:39;;;;;;;6.85;2.43;;;;;;;17.55;79.81;96141.00;127629;1093;26368;-83
2021/08/17 04:04:10;;;;;;;3.70;2.15;;;;;;;17.49;79.24;96157.31;127662;1096;23945;-83
2021/08/17 04:06:42;;;;;;;5.58;2.58;;;;;;;17.37;79.37;96177.94;127651;1094;29162;-84
2021/08/17 04:09:13;;;;;;;5.05;2.40;;;;;;;17.34;79.28;96176.72;127549;1095;35564;-83
2021/08/17 04:11:44;;;;;;;4.70;2.33;;;;;;;17.28;79.09;96156.59;127600;1096;37627;-83
2021/08/17 04:14:15;;;;;;;6.55;2.70;;;;;;;17.23;78.96;96137.28;127576;1096;26075;-83
2021/08/17 04:16:47;;;;;;;5.33;2.40;;;;;;;17.28;79.66;96107.58;127537;1093;26671;-84
2021/08/17 04:19:18;;;;;;;3.27;2.07;;;;;;;17.36;80.06;96123.57;127534;1093;25340;-83
2021/08/17 04:21:49;;;;;;;4.95;2.10;;;;;;;17.38;79.98;96160.75;127583;1096;33256;-83
2021/08/17 04:24:22;;;;;;;5.50;2.38;;;;;;;17.33;79.53;96166.33;127557;1095;23468;-84
2021/08/17 04:26:53;;;;;;;4.13;2.00;;;;;;;17.35;79.83;96172.13;127563;1096;23874;-84
2021/08/17 04:29:24;;;;;;;5.25;2.35;;;;;;;17.26;79.52;96180.25;127482;1095;31323;-83
2021/08/17 04:31:57;;;;;;;5.68;2.33;;;;;;;17.27;80.13;96189.07;127540;1096;27028;-83
2021/08/17 04:34:28;;;;;;;4.60;2.45;;;;;;;17.46;80.92;96182.10;127556;1096;27864;-83
2021/08/17 04:36:59;;;;;;;6.28;2.55;;;;;;;17.60;80.73;96187.15;127496;1094;27731;-83
2021/08/17 04:39:31;;;;;;;3.75;2.63;;;;;;;17.68;80.58;96183.59;127578;1094;25629;-83
2021/08/17 04:42:02;;;;;;;5.30;2.60;;;;;;;17.75;80.45;96181.16;127645;1095;75626;-83
2021/08/17 04:44:34;;;;;;;4.03;1.73;;;;;;;17.73;79.09;96199.45;127534;1094;68676;-83
2021/08/17 04:47:06;;;;;;;6.53;2.10;;;;;;;17.68;78.58;96196.19;127551;1093;25903;-83
2021/08/17 04:49:37;;;;;;;4.38;2.35;;;;;;;17.65;78.15;96173.52;127579;1096;25124;-84
2021/08/17 04:52:09;;;;;;;5.70;2.50;;;;;;;17.55;77.86;96144.46;127630;1094;22866;-84
2021/08/17 04:54:40;;;;;;;5.50;2.45;;;;;;;17.59;78.30;96131.95;127659;1096;25461;-83
2021/08/17 04:57:13;;;;;;;2.60;1.85;;;;;;;17.60;77.96;96141.58;127658;1096;25395;-83
2021/08/17 04:59:45;;;;;;;3.20;1.75;;;;;;;17.56;77.65;96146.02;127525;1093;28691;-82
2021/08/17 05:02:16;;;;;;;4.28;2.40;;;;;;;17.41;77.40;96160.86;127579;1096;24527;-82
2021/08/17 05:04:47;;;;;;;4.60;2.43;;;;;;;17.23;77.91;96164.84;127507;1096;31968;-82
2021/08/17 05:07:19;;;;;;;7.58;2.28;;;;;;;17.09;78.14;96159.79;127579;1094;26977;-83
2021/08/17 05:09:50;;;;;;;4.00;2.45;;;;;;;16.99;78.67;96164.77;127536;1096;30962;-83
2021/08/17 05:12:21;;;;;;;3.58;2.15;;;;;;;16.92;78.38;96168.00;127600;1096;27219;-83
2021/08/17 05:14:52;;;;;;;4.08;2.08;;;;;;;16.85;78.48;96162.38;127616;1096;28508;-83
2021/08/17 05:17:24;;;;;;;5.63;2.35;;;;;;;16.93;78.72;96166.88;127583;1095;35906;-83
2021/08/17 05:19:55;;;;;;;5.78;2.48;;;;;;;16.96;78.62;96170.79;127565;1093;25990;-83
2021/08/17 05:22:27;;;;;;;5.45;2.60;;;;;;;16.97;78.74;96181.17;127592;1092;25508;-83
2021/08/17 05:24:58;;;;;;;4.58;2.33;;;;;;;17.03;79.21;96206.65;127551;1096;26127;-83
2021/08/17 05:27:30;;;;;;;4.58;2.40;;;;;;;17.12;79.32;96203.88;127541;1095;28638;-83
2021/08/17 05:30:01;;;;;;;4.10;2.15;;;;;;;17.25;79.36;96192.09;127558;1093;26479;-83
2021/08/17 05:32:32;;;;;;;4.35;2.38;;;;;;;17.38;79.32;96203.63;127517;1093;29832;-83
2021/08/17 05:35:04;;;;;;;4.18;2.03;;;;;;;17.37;78.75;96218.14;127530;1096;27809;-83
2021/08/17 05:37:36;;;;;;;5.60;2.40;;;;;;;17.21;78.32;96217.98;127606;1093;27775;-83
2021/08/17 05:40:10;;;;;;;4.85;2.05;;;;;;;17.12;78.33;96206.55;127560;1093;27569;-83
2021/08/17 05:42:41;;;;;;;4.60;2.43;;;;;;;17.03;78.45;96197.80;127611;1096;23550;-83
2021/08/17 05:45:14;;;;;;;4.50;2.23;;;;;;;16.92;78.38;96200.13;127617;1096;23969;-83
2021/08/17 05:47:47;;;;;;;4.28;2.23;;;;;;;16.89;78.91;96200.76;127534;1094;25609;-83
2021/08/17 05:50:19;;;;;;;7.10;2.58;;;;;;;16.80;79.24;96205.42;127539;1093;26919;-83
2021/08/17 05:52:51;;;;;;;4.78;2.50;;;;;;;16.71;79.67;96210.05;127492;1093;59140;-83
2021/08/17 05:55:22;;;;;;;5.15;2.75;;;;;;;16.63;79.99;96212.45;127545;1093;26613;-83
2021/08/17 05:58:03;;;;;;;3.58;2.30;;;;;;;16.56;80.16;96212.17;127466;1093;29750;-84
2021/08/17 06:00:33;;;;;;;;;;;;;;;16.50;80.36;96216.16;127576;1093;32961;-84
2021/08/17 06:03:04;;;;;;;3.63;2.40;;;;;;;16.42;80.73;96208.97;127567;1093;34332;-84
2021/08/17 06:05:35;;;;;;;2.70;1.83;;;;;;;16.37;80.90;96214.52;127579;1093;25213;-84
2021/08/17 06:08:07;;;;;;;3.68;1.95;;;;;;;16.36;81.15;96212.95;127589;1092;27464;-83
2021/08/17 06:10:39;;;;;;;2.93;1.85;;;;;;;16.39;81.55;96206.95;127631;1092;28475;-83
2021/08/17 06:13:11;;;;;;;5.00;2.23;;;;;;;16.41;81.21;96207.40;127581;1093;27641;-84
2021/08/17 06:15:42;;;;;;;3.38;1.95;;;;;;;16.41;81.65;96204.73;127620;1093;23674;-84
2021/08/17 06:18:22;;;;;;;4.15;2.43;;;;;;;16.43;81.90;96207.08;127529;1093;25482;-84
2021/08/17 06:20:54;;;;;;;4.93;2.70;;;;;;;16.45;82.19;96210.98;127532;1093;27814;-83
2021/08/17 06:23:25;;;;;;;5.98;2.70;;;;;;;16.50;82.30;96207.36;127529;1093;31425;-83
2021/08/17 06:25:57;;;;;;;3.70;2.30;;;;;;;16.55;82.17;96199.13;127557;1093;24635;-84
2021/08/17 06:28:28;;;;;;;4.85;2.73;;;;;;;16.63;82.27;96199.07;127550;1093;27474;-84
2021/08/17 06:31:00;;;;;;;4.13;2.53;;;;;;;16.66;82.12;96204.88;127555;1093;27935;-84
2021/08/17 06:33:31;;;;;;;4.35;2.35;;;;;;;16.62;82.14;96221.59;127549;1093;39725;-83
2021/08/17 06:36:03;;;;;;;3.03;1.95;;;;;;;16.61;82.13;96219.25;127572;1092;24251;-84
2021/08/17 06:38:35;;;;;;;6.10;2.65;;;;;;;16.65;82.60;96222.05;127579;1092;24863;-83
2021/08/17 06:41:06;;;;;;;4.28;2.03;;;;;;;16.69;82.61;96226.44;127577;1093;24880;-84
2021/08/17 06:43:38;;;;;;;5.48;2.30;;;;;;;16.68;82.30;96237.48;127566;1093;23417;-84
2021/08/17 06:46:10;;;;;;;3.93;2.20;;;;;;;16.71;82.60;96239.50;127683;1093;27420;-84
2021/08/17 06:48:42;;;;;;;4.13;2.05;;;;;;;16.74;82.64;96244.97;127623;1093;28462;-84
2021/08/17 06:51:13;;;;;;;4.90;2.28;;;;;;;16.81;82.77;96233.76;127623;1092;26604;-84
2021/08/17 06:53:45;;;;;;;3.03;1.98;;;;;;;16.87;82.46;96237.80;127571;1093;37386;-84
2021/08/17 06:56:17;;;;;;;3.08;1.83;;;;;;;16.99;82.42;96240.53;127598;1091;26799;-84
2021/08/17 06:58:48;;;;;;;4.98;2.00;;;;;;;17.03;81.55;96256.72;127640;1093;25475;-84
2021/08/17 07:01:20;;;;;;;3.73;1.98;;;;;;;16.98;80.93;96259.61;127738;1093;25703;-83
2021/08/17 07:03:51;;;;;;;3.85;1.98;;;;;;;16.97;80.89;96258.83;127717;1093;28947;-83
2021/08/17 07:06:23;;;;;;;3.73;2.20;;;;;;;16.95;79.85;96266.41;127625;1093;67730;-84
2021/08/17 07:08:55;;;;;;;2.98;1.75;;;;;;;16.82;79.72;96262.09;127688;1093;26868;-83
2021/08/17 07:11:26;;;;;;;3.75;2.20;;;;;;;16.65;79.81;96268.33;127696;1093;25870;-84
2021/08/17 07:13:59;;;;;;;2.80;1.60;;;;;;;16.48;79.74;96279.15;127614;1093;27125;-84
2021/08/17 07:16:30;;;;;;;1.65;1.48;;;;;;;16.38;79.98;96280.30;127615;1093;23026;-84
2021/08/17 07:19:02;;;;;;;2.27;1.50;;;;;;;16.27;80.39;96290.56;127591;1093;26166;-83
2021/08/17 07:21:33;;;;;;;3.15;1.90;;;;;;;16.07;80.59;96298.53;127563;1093;32098;-83
2021/08/17 07:24:05;;;;;;;2.15;1.58;;;;;;;15.97;81.08;96296.98;127598;1093;24393;-82
2021/08/17 07:26:37;;;;;;;1.65;1.10;;;;;;;15.88;80.51;96288.98;127629;1093;26579;-84
2021/08/17 07:29:08;;;;;;;1.30;1.20;;;;;;;15.72;80.36;96295.95;127580;1093;23990;-85
2021/08/17 07:31:40;;;;;;;1.85;1.10;;;;;;;15.72;80.97;96303.97;127634;1093;25634;-84
2021/08/17 07:34:11;;;;;;;2.00;1.43;;;;;;;15.77;81.08;96303.04;127644;1093;25517;-84
2021/08/17 07:36:43;;;;;;;1.60;1.35;;;;;;;15.78;81.12;96309.95;127633;1093;25758;-83
2021/08/17 07:39:14;;;;;;;3.48;1.75;;;;;;;15.77;80.79;96317.19;127602;1093;24701;-82
2021/08/17 07:41:46;;;;;;;2.25;1.63;;;;;;;15.60;80.40;96320.66;127605;1093;26112;-84
2021/08/17 07:44:18;;;;;;;4.70;3.60;;;;;;;15.55;80.81;96323.47;127658;1093;23536;-83
2021/08/17 07:46:49;;;;;;;2.83;2.47;;;;;;;15.40;80.95;96335.43;127653;1093;27656;-83
2021/08/17 07:49:21;;;;;;;3.78;2.55;;;;;;;15.17;80.12;96339.34;127565;1093;26554;-82
2021/08/17 07:51:52;;;;;;;6.53;3.68;;;;;;;14.87;80.16;96357.06;127557;1093;25379;-83
2021/08/17 07:54:24;;;;;;;6.88;4.40;;;;;;;14.67;79.83;96355.78;127651;1091;25796;-83
2021/08/17 07:56:57;;;;;;;5.10;3.00;;;;;;;14.31;79.01;96376.48;127536;1093;26527;-83
2021/08/17 07:59:29;;;;;;;4.13;2.55;;;;;;;13.96;79.18;96386.97;127618;1093;24014;-83
2021/08/17 08:02:01;;;;;;;2.58;1.65;;;;;;;13.70;79.22;96380.69;127606;1093;25456;-83
2021/08/17 08:04:32;;;;;;;3.03;2.00;;;;;;;13.54;79.32;96402.36;127551;1093;28120;-83
2021/08/17 08:07:04;;;;;;;3.50;1.70;;;;;;;13.36;79.29;96408.62;127608;1093;27012;-83
2021/08/17 08:09:36;;;;;;;2.93;1.93;;;;;;;13.31;79.86;96417.52;127564;1093;30813;-83
2021/08/17 08:12:10;;;;;;;2.90;1.33;;;;;;;13.25;79.93;96407.29;127559;1093;26456;-83
2021/08/17 08:14:42;;;;;;;2.25;1.30;;;;;;;13.13;80.24;96413.09;127668;1093;27984;-83
2021/08/17 08:17:14;;;;;;;2.68;1.73;;;;;;;13.14;80.70;96424.53;127594;1092;24712;-82
2021/08/17 08:19:46;;;;;;;2.33;1.50;;;;;;;13.10;80.81;96426.22;127529;1093;26716;-83
2021/08/17 08:22:18;;;;;;;1.35;1.10;;;;;;;13.04;81.15;96420.98;127552;1093;30274;-81
2021/08/17 08:24:49;;;;;;;2.30;1.20;;;;;;;13.02;81.20;96419.71;127618;1092;25199;-82
2021/08/17 08:27:21;;;;;;;3.70;1.50;;;;;;;12.98;81.31;96414.20;127547;1093;25431;-83
2021/08/17 08:29:52;;;;;;;3.40;1.65;;;;;;;13.04;81.96;96423.64;127566;1092;25619;-83
2021/08/17 08:32:24;;;;;;;2.40;1.70;;;;;;;13.07;81.84;96430.23;127570;1093;30764;-83
2021/08/17 08:34:55;;;;;;;3.80;1.60;;;;;;;13.05;82.19;96433.20;127599;1092;24300;-83
2021/08/17 08:37:26;;;;;;;2.50;1.30;;;;;;;13.08;82.15;96427.28;127660;1093;24498;-82
2021/08/17 08:39:58;;;;;;;1.95;1.20;;;;;;;13.11;82.45;96422.47;127678;1092;27664;-83
2021/08/17 08:42:30;;;;;;;2.60;1.40;;;;;;;13.14;82.65;96435.17;127640;1093;23398;-84
2021/08/17 08:45:02;;;;;;;2.20;1.00;;;;;;;13.24;82.76;96433.13;127643;1093;27434;-83
2021/08/17 08:47:36;;;;;;;1.70;1.03;;;;;;;13.24;82.54;96440.32;127578;1093;26386;-84
2021/08/17 08:50:10;;;;;;;2.43;1.35;;;;;;;13.14;81.95;96462.58;127590;1093;27475;-83
2021/08/17 08:52:41;;;;;;;3.23;1.45;;;;;;;12.97;81.86;96471.17;127668;1093;24504;-84
2021/08/17 08:55:13;;;;;;;2.20;1.50;;;;;;;12.76;82.66;96494.70;127641;1093;23663;-83
2021/08/17 08:57:45;;;;;;;5.60;1.70;;;;;;;12.73;82.81;96502.48;127558;1093;24558;-82
2021/08/17 09:00:17;;;;;;;2.83;1.40;;;;;;;12.73;82.84;96510.47;127612;1093;27131;-82
2021/08/17 09:02:52;;;;;;;1.20;1.10;;;;;;;12.73;82.58;96521.11;127576;1093;26254;-82
2021/08/17 09:05:23;;;;;;;2.43;1.00;;;;;;;12.69;82.69;96531.55;127584;1093;22811;-84
2021/08/17 09:07:56;;;;;;;1.45;0.88;;;;;;;12.66;82.24;96539.31;127608;1092;25163;-83
2021/08/17 09:10:37;;;;;;;1.38;1.00;;;;;;;12.56;82.40;96550.93;127550;1093;33324;-83
2021/08/17 09:13:08;;;;;;;0.70;0.65;;;;;;;12.54;81.91;96558.41;127538;1093;31700;-83
2021/08/17 09:15:42;;;;;;;1.65;0.90;;;;;;;12.58;81.95;96566.59;127639;1093;28004;-84
2021/08/17 09:18:15;;;;;;;2.40;0.95;;;;;;;12.58;81.36;96558.61;127596;1093;25783;-81
2021/08/17 09:20:49;;;;;;;0.95;0.90;;;;;;;12.59;81.14;96554.87;127531;1093;28145;-82
2021/08/17 09:23:30;;;;;;;2.98;1.00;;;;;;;12.60;81.32;96554.58;127562;1093;35542;-83
2021/08/17 09:26:00;;;;;;;;;;;;;;;12.71;80.88;96555.20;127606;1092;29810;-83
2021/08/17 09:28:35;;;;;;;2.43;1.13;;;;;;;12.79;80.79;96552.63;127544;1092;28447;-83
2021/08/17 09:31:30;;;;;;;3.78;1.00;;;;;;;12.97;81.15;96550.22;127594;1093;24264;-83
2021/08/17 09:34:02;;;;;;;2.08;0.98;;;;;;;13.26;81.26;96560.61;127612;1093;24953;-83
2021/08/17 09:36:40;;;;;;;3.00;1.10;;;;;;;13.53;81.23;96563.25;127541;1092;28560;-84
2021/08/17 09:39:13;;;;;;;2.60;0.93;;;;;;;13.75;80.19;96562.52;127640;1093;22869;-83
2021/08/17 09:41:45;;;;;;;2.30;1.15;;;;;;;13.92;80.09;96565.33;127599;1093;28912;-82
2021/08/17 09:44:22;;;;;;;2.23;1.08;;;;;;;14.10;79.76;96573.50;127629;1093;23524;-83
2021/08/17 09:46:55;;;;;;;2.45;1.18;;;;;;;14.19;79.18;96577.80;127605;1093;23094;-84
2021/08/17 09:49:30;;;;;;;1.80;1.05;;;;;;;14.20;78.59;96579.38;127568;1093;26054;-83
2021/08/17 09:52:11;;;;;;;2.20;1.08;;;;;;;14.22;78.29;96590.55;127567;1093;24797;-82
2021/08/17 09:54:45;;;;;;;2.03;1.25;;;;;;;14.29;77.41;96591.99;127634;1093;29492;-83
2021/08/17 09:57:17;;;;;;;3.58;1.45;;;;;;;14.22;76.53;96601.22;127584;1093;24973;-82
2021/08/17 09:59:49;;;;;;;4.50;1.38;;;;;;;14.14;75.87;96607.25;127555;1093;27102;-84
2021/08/17 10:02:20;;;;;;;2.40;1.20;;;;;;;14.06;76.62;96615.95;127589;1093;23067;-83
2021/08/17 10:04:52;;;;;;;3.70;1.23;;;;;;;13.91;75.87;96629.59;127573;1093;29139;-83
2021/08/17 10:07:23;;;;;;;4.35;1.50;;;;;;;13.84;76.62;96629.23;127602;1093;25257;-84
2021/08/17 10:09:55;;;;;;;2.58;1.18;;;;;;;13.88;76.38;96616.88;127569;1093;26637;-84
2021/08/17 10:12:27;;;;;;;4.50;1.48;;;;;;;13.86;75.75;96611.06;127566;1091;24515;-83
2021/08/17 10:14:58;;;;;;;1.10;1.00;;;;;;;13.91;74.99;96608.28;127621;1093;23024;-83
2021/08/17 10:17:30;;;;;;;2.23;1.28;;;;;;;13.82;74.59;96604.76;127576;1093;30479;-84
2021/08/17 10:20:02;;;;;;;4.00;1.60;;;;;;;13.78;74.26;96603.76;127568;1093;25249;-83
2021/08/17 10:22:38;;;;;;;2.88;1.15;;;;;;;13.81;74.95;96592.52;127580;1093;23563;-83
2021/08/17 10:25:17;;;;;;;3.18;1.48;;;;;;;13.96;75.06;96597.53;127634;1093;23009;-83
2021/08/17 10:27:48;;;;;;;2.68;1.30;;;;;;;14.07;74.95;96600.73;127627;1093;26266;-83
2021/08/17 10:30:21;;;;;;;2.58;1.53;;;;;;;14.13;74.30;96602.22;127643;1093;28151;-83
2021/08/17 10:32:58;;;;;;;4.60;1.65;;;;;;;14.04;73.83;96596.80;127588;1093;25026;-83
2021/08/17 10:35:56;;;;;;;3.50;1.40;;;;;;;14.09;74.25;96595.92;127576;1093;24274;-83
2021/08/17 10:38:49;;;;;;;2.43;1.43;;;;;;;14.22;74.30;96593.22;127579;1092;24657;-83
2021/08/17 10:41:39;;;;;;;3.97;1.03;;;;;;;14.41;73.83;96584.25;127552;1093;26959;-83
2021/08/17 10:44:24;;;;;;;2.07;1.17;;;;;;;14.49;73.86;96596.88;127725;1093;23350;-84
2021/08/17 10:47:10;;;;;;;1.95;1.50;;;;;;;14.62;73.59;96590.69;127566;1093;22850;-83
2021/08/17 10:49:53;;;;;;;2.63;1.43;;;;;;;14.82;73.31;96584.86;127628;1093;25988;-83
2021/08/17 10:52:42;;;;;;;4.60;1.53;;;;;;;14.99;73.18;96596.72;127598;1093;22836;-82
2021/08/17 10:55:37;;;;;;;3.25;1.08;;;;;;;15.16;73.07;96586.12;127634;1093;28298;-83
2021/08/17 10:58:11;;;;;;;2.45;1.13;;;;;;;15.28;71.58;96585.55;127561;1092;25223;-83
2021/08/17 11:00:57;;;;;;;2.58;1.20;;;;;;;15.30;71.15;96588.69;127646;1093;23547;-83
2021/08/17 11:03:51;;;;;;;2.18;1.35;;;;;;;15.17;71.32;96587.69;127744;1093;24588;-83
2021/08/17 11:06:41;;;;;;;3.35;1.30;;;;;;;15.08;70.84;96590.34;127669;1093;25254;-83
2021/08/17 11:09:15;;;;;;;2.05;1.15;;;;;;;15.05;70.90;96590.14;127683;1093;24472;-83
2021/08/17 11:11:49;;;;;;;3.83;1.90;;;;;;;15.15;71.45;96595.23;127562;1093;24672;-83
2021/08/17 11:14:22;;;;;;;2.70;1.63;;;;;;;15.21;70.74;96594.02;127547;1093;31846;-83
2021/08/17 11:16:57;;;;;;;2.97;1.50;;;;;;;15.33;70.40;96596.08;127584;1093;26267;-84
2021/08/17 11:19:30;;;;;;;3.48;1.83;;;;;;;15.23;70.57;96593.70;127588;1093;24399;-83
2021/08/17 11:22:04;;;;;;;4.47;1.67;;;;;;;15.15;70.45;96593.34;127614;1093;26476;-83
2021/08/17 11:24:37;;;;;;;6.45;1.38;;;;;;;15.17;71.01;96598.38;127554;1093;23597;-84
2021/08/17 11:27:10;;;;;;;3.48;1.60;;;;;;;15.40;71.33;96591.09;127561;1093;26751;-83
2021/08/17 11:29:45;;;;;;;3.03;1.40;;;;;;;15.39;70.37;96586.84;127633;1093;30107;-84
2021/08/17 11:32:28;;;;;;;2.98;1.80;;;;;;;15.26;70.73;96579.72;127589;1093;23593;-82
2021/08/17 11:35:03;;;;;;;3.33;1.75;;;;;;;15.27;70.38;96595.44;127561;1093;24906;-84
2021/08/17 11:37:38;;;;;;;2.90;1.33;;;;;;;15.31;70.25;96598.27;127649;1093;22836;-84
2021/08/17 11:40:12;;;;;;;2.25;1.40;;;;;;;15.28;69.71;96597.02;127627;1092;27723;-83
2021/08/17 11:42:45;;;;;;;2.38;1.60;;;;;;;15.28;70.21;96583.66;127741;1093;24399;-83
2021/08/17 11:45:18;;;;;;;2.35;1.43;;;;;;;15.10;69.61;96587.36;127592;1093;27179;-82
2021/08/17 11:47:51;;;;;;;3.70;1.53;;;;;;;15.06;69.73;96579.19;127536;1093;26216;-83
2021/08/17 11:50:24;;;;;;;5.38;1.90;;;;;;;14.99;70.42;96597.51;127615;1093;23803;-84
2021/08/17 11:52:59;;;;;;;3.93;1.93;;;;;;;15.02;70.57;96586.21;127604;1093;23977;-84
2021/08/17 11:55:34;;;;;;;3.58;1.50;;;;;;;15.06;70.97;96600.55;127637;1092;24450;-84
2021/08/17 11:58:09;;;;;;;3.75;1.55;;;;;;;15.25;70.96;96597.63;127565;1093;24982;-83
2021/08/17 12:00:41;;;;;;;5.17;1.70;;;;;;;15.36;70.25;96587.47;127756;1093;24077;-84
2021/08/17 12:03:12;;;;;;;3.45;1.83;;;;;;;15.19;69.37;96590.84;127646;1093;25443;-83
2021/08/17 12:05:44;;;;;;;3.73;1.63;;;;;;;15.10;70.03;96595.38;127666;1093;25995;-83